Time;durP1;ratioP1;P1;durP2;ratioP2;P2;SDS_P1;SDS_P2;PMS_P1;PMS_P2;Temp;Humidity;BMP_temperature;BMP_pressure;BME280_temperature;BME280_humidity;BME280_pressure;Samples;Min_cycle;Max_cycle;Signal;HPM_P1;HPM_P2
2022/06/26 00:01:10;;;;;;;13.00;4.50;;;;;;;;;;5017591;28;21104;-73
2022/06/26 00:03:40;;;;;;;11.95;3.03;;;;;;;;;;5024289;28;20496;-74
2022/06/26 00:06:10;;;;;;;12.52;6.43;;;;;;;;;;5026336;28;20042;-72
2022/06/26 00:08:40;;;;;;;16.27;3.72;;;;;;;;;;5024347;28;20046;-72
2022/06/26 00:11:10;;;;;;;16.25;4.32;;;;;;;;;;5026359;28;20049;-73
2022/06/26 00:13:40;;;;;;;13.25;4.10;;;;;;;;;;5024101;28;20037;-73
2022/06/26 00:16:10;;;;;;;13.88;4.38;;;;;;;;;;5025382;28;20053;-73
2022/06/26 00:18:41;;;;;;;10.50;3.53;;;;;;;;;;5024550;28;20543;-73
2022/06/26 00:21:11;;;;;;;15.27;3.60;;;;;;;;;;5026210;28;20060;-73
2022/06/26 00:23:40;;;;;;;18.42;4.10;;;;;;;;;;5026031;28;20049;-73
2022/06/26 00:26:10;;;;;;;11.40;4.22;;;;;;;;;;5025940;28;20060;-73
2022/06/26 00:28:40;;;;;;;15.95;4.18;;;;;;;;;;5026163;28;20045;-73
2022/06/26 00:31:10;;;;;;;14.60;4.43;;;;;;;;;;5025958;28;20037;-73
2022/06/26 00:33:40;;;;;;;12.57;4.22;;;;;;;;;;5025978;28;20037;-73
2022/06/26 00:36:10;;;;;;;9.98;3.75;;;;;;;;;;5025862;28;20527;-73
2022/06/26 00:38:40;;;;;;;15.60;4.18;;;;;;;;;;5025065;28;20064;-73
2022/06/26 00:41:10;;;;;;;9.93;3.88;;;;;;;;;;5024884;28;20454;-73
2022/06/26 00:43:40;;;;;;;8.65;3.60;;;;;;;;;;5025027;28;20066;-73
2022/06/26 00:46:10;;;;;;;14.55;4.03;;;;;;;;;;5026451;28;20068;-73
2022/06/26 00:48:40;;;;;;;9.07;3.42;;;;;;;;;;5026119;28;20398;-73
2022/06/26 00:51:10;;;;;;;10.43;3.03;;;;;;;;;;5026928;28;20062;-74
2022/06/26 00:53:41;;;;;;;12.13;3.20;;;;;;;;;;5026580;28;20505;-73
2022/06/26 00:56:10;;;;;;;12.13;4.20;;;;;;;;;;5025508;28;20707;-73
2022/06/26 00:58:40;;;;;;;17.52;3.75;;;;;;;;;;5022559;28;20064;-75
2022/06/26 01:01:10;;;;;;;12.05;3.33;;;;;;;;;;5025601;28;20056;-73
2022/06/26 01:03:40;;;;;;;9.43;4.00;;;;;;;;;;5047490;28;20054;-72
2022/06/26 01:06:10;;;;;;;13.48;3.33;;;;;;;;;;5013547;28;20064;-72
2022/06/26 01:08:40;;;;;;;8.18;3.60;;;;;;;;;;5014897;28;20493;-73
2022/06/26 01:11:20;;;;;;;14.90;3.60;;;;;;;;;;5047324;28;20385;-74
2022/06/26 01:13:53;;;;;;;16.83;3.28;;;;;;;;;;5052176;28;20065;-72
2022/06/26 01:16:24;;;;;;;11.73;3.45;;;;;;;;;;5025978;28;20064;-72
2022/06/26 01:18:56;;;;;;;9.82;2.70;;;;;;;;;;5028881;28;20061;-72
2022/06/26 01:21:25;;;;;;;11.57;3.58;;;;;;;;;;5050108;28;20056;-72
2022/06/26 01:23:56;;;;;;;11.65;3.25;;;;;;;;;;5017471;28;20056;-72
2022/06/26 01:26:26;;;;;;;10.02;3.25;;;;;;;;;;5027939;28;20064;-72
2022/06/26 01:28:57;;;;;;;10.18;3.58;;;;;;;;;;5027781;28;20049;-72
2022/06/26 01:31:27;;;;;;;15.70;3.55;;;;;;;;;;5027352;28;20060;-72
2022/06/26 01:33:58;;;;;;;6.93;3.17;;;;;;;;;;5027884;28;20053;-72
2022/06/26 01:36:29;;;;;;;10.10;3.47;;;;;;;;;;5027972;28;20053;-73
2022/06/26 01:39:00;;;;;;;15.68;3.95;;;;;;;;;;5029278;28;20057;-72
2022/06/26 01:41:30;;;;;;;10.45;3.28;;;;;;;;;;5061147;28;20064;-72
2022/06/26 01:44:01;;;;;;;11.30;3.30;;;;;;;;;;5029402;28;20045;-73
2022/06/26 01:46:32;;;;;;;13.88;3.85;;;;;;;;;;5029652;28;20049;-72
2022/06/26 01:49:02;;;;;;;9.35;3.08;;;;;;;;;;5028160;28;20767;-72
2022/06/26 01:51:35;;;;;;;10.90;4.18;;;;;;;;;;5028099;28;20076;-72
2022/06/26 01:54:05;;;;;;;14.98;5.13;;;;;;;;;;5060908;28;20049;-73
2022/06/26 01:56:36;;;;;;;16.58;5.10;;;;;;;;;;5027782;28;20084;-72
2022/06/26 01:59:07;;;;;;;16.77;5.05;;;;;;;;;;5027962;28;20053;-72
2022/06/26 02:01:45;;;;;;;9.73;4.20;;;;;;;;;;5028315;28;20057;-72
2022/06/26 02:04:16;;;;;;;20.50;4.53;;;;;;;;;;5028245;28;20060;-72
2022/06/26 02:06:46;;;;;;;12.90;4.50;;;;;;;;;;5029466;28;20053;-72
2022/06/26 02:15:09;;;;;;;16.45;5.93;;;;;;;;;;5061374;28;20057;-71
2022/06/26 02:17:39;;;;;;;19.00;6.15;;;;;;;;;;5028953;28;20057;-72
2022/06/26 02:20:10;;;;;;;17.00;4.68;;;;;;;;;;5029596;28;20049;-72
2022/06/26 02:22:41;;;;;;;20.00;5.13;;;;;;;;;;5027664;28;20054;-72
2022/06/26 02:25:12;;;;;;;16.58;5.65;;;;;;;;;;5029489;28;20056;-72
2022/06/26 02:27:42;;;;;;;16.38;5.60;;;;;;;;;;5028135;28;20058;-72
2022/06/26 02:30:11;;;;;;;12.77;5.18;;;;;;;;;;5028546;28;20053;-72
2022/06/26 02:32:41;;;;;;;20.85;5.40;;;;;;;;;;5028896;28;20053;-72
2022/06/26 02:35:12;;;;;;;20.48;5.97;;;;;;;;;;5027265;28;20161;-73
2022/06/26 02:37:41;;;;;;;16.30;5.80;;;;;;;;;;5027382;28;20068;-72
2022/06/26 02:40:12;;;;;;;12.63;5.65;;;;;;;;;;5029303;28;20420;-73
2022/06/26 02:42:43;;;;;;;13.80;6.07;;;;;;;;;;5027053;28;20413;-73
2022/06/26 02:45:14;;;;;;;19.35;5.70;;;;;;;;;;5027452;28;20524;-73
2022/06/26 02:47:45;;;;;;;24.50;5.00;;;;;;;;;;5027547;28;20060;-73
2022/06/26 02:50:16;;;;;;;15.85;6.03;;;;;;;;;;5027137;28;20061;-72
2022/06/26 02:52:46;;;;;;;18.67;6.80;;;;;;;;;;5027545;28;20538;-73
2022/06/26 02:55:16;;;;;;;24.40;8.18;;;;;;;;;;5027023;28;20057;-73
2022/06/26 02:57:46;;;;;;;21.20;6.72;;;;;;;;;;5028591;28;20535;-73
2022/06/26 03:00:16;;;;;;;20.33;7.63;;;;;;;;;;5026775;28;20054;-74
2022/06/26 03:02:48;;;;;;;25.00;7.55;;;;;;;;;;5027123;28;20052;-73
2022/06/26 03:05:19;;;;;;;24.33;6.25;;;;;;;;;;5026840;28;20080;-73
2022/06/26 03:07:49;;;;;;;23.43;6.00;;;;;;;;;;5027285;28;20481;-73
2022/06/26 03:10:19;;;;;;;19.23;6.45;;;;;;;;;;5028396;28;20064;-72
2022/06/26 03:12:49;;;;;;;21.33;6.05;;;;;;;;;;5027046;28;20061;-73
2022/06/26 03:15:20;;;;;;;24.48;9.70;;;;;;;;;;5026662;28;20061;-73
2022/06/26 03:17:55;;;;;;;34.58;9.48;;;;;;;;;;5041733;28;20053;-72
2022/06/26 03:20:26;;;;;;;;;;;;;;;;;;5027676;28;20057;-73
2022/06/26 03:22:57;;;;;;;25.25;8.88;;;;;;;;;;5026574;28;19958;-74
2022/06/26 03:25:26;;;;;;;25.85;8.88;;;;;;;;;;5026360;28;20045;-73
2022/06/26 03:27:58;;;;;;;16.73;6.82;;;;;;;;;;5026789;28;20060;-73
2022/06/26 03:30:29;;;;;;;;;;;;;;;;;;5026683;28;20057;-73
2022/06/26 03:32:59;;;;;;;11.40;5.57;;;;;;;;;;5028662;28;20376;-72
2022/06/26 03:35:29;;;;;;;13.75;5.40;;;;;;;;;;5027155;28;20520;-72
2022/06/26 03:38:01;;;;;;;22.60;4.90;;;;;;;;;;5026220;28;20061;-72
2022/06/26 03:40:33;;;;;;;7.28;4.43;;;;;;;;;;5026178;28;20072;-73
2022/06/26 03:43:04;;;;;;;;;;;;;;;;;;5010775;28;20050;-72
2022/06/26 03:45:46;;;;;;;;;;;;;;;;;;5026878;28;19932;-72
2022/06/26 03:48:16;;;;;;;9.38;4.53;;;;;;;;;;5059728;28;19932;-72
2022/06/26 03:50:47;;;;;;;21.48;6.20;;;;;;;;;;5025913;28;20068;-73
2022/06/26 03:53:18;;;;;;;13.13;4.05;;;;;;;;;;5026212;28;20045;-73
2022/06/26 03:55:48;;;;;;;12.68;3.90;;;;;;;;;;5025993;28;20052;-73
2022/06/26 03:58:18;;;;;;;15.80;4.35;;;;;;;;;;5026318;28;20080;-73
2022/06/26 04:00:49;;;;;;;15.32;4.90;;;;;;;;;;5025825;28;20049;-72
2022/06/26 04:03:20;;;;;;;17.27;4.20;;;;;;;;;;5026231;28;20500;-72
2022/06/26 04:05:50;;;;;;;18.63;4.30;;;;;;;;;;5025383;28;20057;-72
2022/06/26 04:08:20;;;;;;;14.60;4.43;;;;;;;;;;5025573;28;20296;-72
2022/06/26 04:11:02;;;;;;;13.48;4.07;;;;;;;;;;5025788;28;20054;-74
2022/06/26 04:13:35;;;;;;;16.08;4.05;;;;;;;;;;5025481;28;20053;-72
2022/06/26 04:16:05;;;;;;;9.73;3.92;;;;;;;;;;5026048;28;20060;-72
2022/06/26 04:18:39;;;;;;;12.75;4.85;;;;;;;;;;5025756;28;20049;-72
2022/06/26 04:21:10;;;;;;;13.13;4.07;;;;;;;;;;5025367;28;20061;-72
2022/06/26 04:23:40;;;;;;;29.63;5.50;;;;;;;;;;5025533;28;20054;-72
2022/06/26 04:26:17;;;;;;;16.02;4.63;;;;;;;;;;5025791;28;20050;-72
2022/06/26 04:28:48;;;;;;;17.33;5.00;;;;;;;;;;5025512;28;20057;-72
2022/06/26 04:31:19;;;;;;;20.73;5.78;;;;;;;;;;5025275;28;20686;-72
2022/06/26 04:33:52;;;;;;;20.38;5.22;;;;;;;;;;5025568;28;20058;-72
2022/06/26 04:36:24;;;;;;;18.25;5.10;;;;;;;;;;5025448;28;20068;-73
2022/06/26 04:38:54;;;;;;;19.77;5.35;;;;;;;;;;5025966;28;20064;-72
2022/06/26 04:41:38;;;;;;;19.73;4.87;;;;;;;;;;5024847;28;20049;-72
2022/06/26 04:44:12;;;;;;;17.95;4.85;;;;;;;;;;5025573;28;20053;-73
2022/06/26 04:46:43;;;;;;;14.82;4.13;;;;;;;;;;5057801;28;20053;-72
2022/06/26 04:49:13;;;;;;;18.50;5.00;;;;;;;;;;5026319;28;20053;-72
2022/06/26 04:51:44;;;;;;;24.75;4.43;;;;;;;;;;5024672;28;20057;-72
2022/06/26 04:54:27;;;;;;;8.80;3.47;;;;;;;;;;5025517;28;20057;-73
2022/06/26 04:56:57;;;;;;;17.63;4.13;;;;;;;;;;5024872;28;20049;-72
2022/06/26 04:59:27;;;;;;;20.50;4.70;;;;;;;;;;5025483;28;20049;-72
2022/06/26 05:02:05;;;;;;;19.80;3.92;;;;;;;;;;5025226;28;20072;-72
2022/06/26 05:04:54;;;;;;;;;;;;;;;;;;5025282;28;20069;-73
2022/06/26 05:07:53;;;;;;;13.55;4.15;;;;;;;;;;5026170;28;19928;-72
2022/06/26 05:10:24;;;;;;;16.83;4.57;;;;;;;;;;5024745;28;20496;-72
2022/06/26 05:12:54;;;;;;;11.97;4.43;;;;;;;;;;5024810;28;20049;-72
2022/06/26 05:15:46;;;;;;;18.77;4.75;;;;;;;;;;5025825;28;20072;-72
2022/06/26 05:18:19;;;;;;;18.35;4.18;;;;;;;;;;5024737;28;20049;-72
2022/06/26 05:20:49;;;;;;;23.15;4.47;;;;;;;;;;5025434;28;20049;-73
2022/06/26 05:23:19;;;;;;;21.08;4.00;;;;;;;;;;5057696;28;20061;-72
2022/06/26 05:26:09;;;;;;;15.82;4.05;;;;;;;;;;5025908;28;20168;-72
2022/06/26 05:28:39;;;;;;;14.57;4.72;;;;;;;;;;5026220;28;20049;-73
2022/06/26 05:31:09;;;;;;;18.45;4.20;;;;;;;;;;5024753;28;20064;-72
2022/06/26 05:33:42;;;;;;;17.70;4.78;;;;;;;;;;5024374;28;20053;-72
2022/06/26 05:36:12;;;;;;;18.67;4.13;;;;;;;;;;5024709;28;20131;-72
2022/06/26 05:38:43;;;;;;;16.92;3.85;;;;;;;;;;5026492;28;20292;-72
2022/06/26 05:41:13;;;;;;;11.98;4.13;;;;;;;;;;5026384;28;20056;-72
2022/06/26 05:43:44;;;;;;;15.57;3.75;;;;;;;;;;5024991;28;20061;-73
2022/06/26 05:46:15;;;;;;;14.40;3.03;;;;;;;;;;5026296;28;20053;-72
2022/06/26 05:48:54;;;;;;;15.93;3.53;;;;;;;;;;5030205;28;20068;-72
2022/06/26 05:51:42;;;;;;;14.50;3.13;;;;;;;;;;5026030;28;20049;-72
2022/06/26 05:54:20;;;;;;;12.15;3.17;;;;;;;;;;5024389;28;20057;-71
2022/06/26 05:57:05;;;;;;;21.05;3.25;;;;;;;;;;5024315;28;20408;-73
2022/06/26 06:00:06;;;;;;;15.40;3.42;;;;;;;;;;5028072;28;20053;-71
2022/06/26 06:02:45;;;;;;;17.70;3.72;;;;;;;;;;5029935;28;20064;-71
2022/06/26 06:05:20;;;;;;;13.15;3.25;;;;;;;;;;5027849;28;20061;-72
2022/06/26 06:07:52;;;;;;;21.05;3.42;;;;;;;;;;5028378;28;20523;-71
2022/06/26 06:10:23;;;;;;;19.42;4.10;;;;;;;;;;5029758;28;20045;-72
2022/06/26 06:12:54;;;;;;;15.07;4.22;;;;;;;;;;5027781;28;20073;-72
2022/06/26 06:15:25;;;;;;;14.52;3.85;;;;;;;;;;5061378;28;20408;-71
2022/06/26 06:17:57;;;;;;;18.27;4.28;;;;;;;;;;5060522;28;20539;-72
2022/06/26 06:20:28;;;;;;;15.27;5.20;;;;;;;;;;5029138;28;20554;-73
2022/06/26 06:23:04;;;;;;;10.15;3.83;;;;;;;;;;5027970;28;20049;-73
2022/06/26 06:25:35;;;;;;;12.40;3.42;;;;;;;;;;5027523;28;20053;-73
2022/06/26 06:28:06;;;;;;;15.75;3.70;;;;;;;;;;5028057;28;20053;-73
2022/06/26 06:30:40;;;;;;;17.58;3.30;;;;;;;;;;5027733;28;20424;-72
2022/06/26 06:33:11;;;;;;;10.52;2.92;;;;;;;;;;5027392;28;20521;-73
2022/06/26 06:35:43;;;;;;;12.65;2.90;;;;;;;;;;5027385;28;20056;-72
2022/06/26 06:38:13;;;;;;;14.20;3.08;;;;;;;;;;5027281;28;20054;-72
2022/06/26 06:40:50;;;;;;;14.73;2.97;;;;;;;;;;5027133;28;20054;-73
2022/06/26 06:43:27;;;;;;;17.13;3.35;;;;;;;;;;5027422;28;20504;-73
2022/06/26 06:46:35;;;;;;;22.23;3.55;;;;;;;;;;5026353;28;20483;-72
2022/06/26 06:49:12;;;;;;;11.90;2.63;;;;;;;;;;5009177;28;20045;-72
2022/06/26 06:51:53;;;;;;;22.30;3.25;;;;;;;;;;5052791;28;20045;-72
2022/06/26 06:54:25;;;;;;;34.10;4.00;;;;;;;;;;5028355;28;20615;-72
2022/06/26 06:56:56;;;;;;;11.90;3.20;;;;;;;;;;5026438;28;20057;-72
2022/06/26 06:59:26;;;;;;;15.25;3.00;;;;;;;;;;5028510;28;20045;-71
2022/06/26 07:01:55;;;;;;;12.35;2.47;;;;;;;;;;5026786;28;20156;-73
2022/06/26 07:04:25;;;;;;;21.35;3.20;;;;;;;;;;5027035;28;20050;-72
2022/06/26 07:06:59;;;;;;;14.68;2.65;;;;;;;;;;5026495;28;20414;-72
2022/06/26 07:09:31;;;;;;;18.33;2.88;;;;;;;;;;5028603;28;20413;-72
2022/06/26 07:12:01;;;;;;;13.68;2.63;;;;;;;;;;5027802;28;20049;-72
2022/06/26 07:14:32;;;;;;;10.43;2.38;;;;;;;;;;5059880;28;20050;-73
2022/06/26 07:17:02;;;;;;;14.70;2.92;;;;;;;;;;5026590;28;20054;-72
2022/06/26 07:19:31;;;;;;;15.10;2.75;;;;;;;;;;5026343;28;20434;-72
2022/06/26 07:22:02;;;;;;;16.33;2.72;;;;;;;;;;5026342;28;20493;-72
2022/06/26 07:24:32;;;;;;;17.60;2.17;;;;;;;;;;5059299;28;20054;-72
2022/06/26 07:27:37;;;;;;;20.38;3.10;;;;;;;;;;5025926;28;20049;-72
2022/06/26 07:30:08;;;;;;;16.93;2.80;;;;;;;;;;5021987;28;20064;-72
2022/06/26 07:32:49;;;;;;;17.70;2.72;;;;;;;;;;5026257;28;20053;-72
2022/06/26 07:35:19;;;;;;;12.43;2.38;;;;;;;;;;5060153;28;20053;-72
2022/06/26 07:37:49;;;;;;;27.52;2.95;;;;;;;;;;5026551;28;20053;-72
2022/06/26 07:40:19;;;;;;;27.30;3.22;;;;;;;;;;5026070;28;20056;-72
2022/06/26 07:42:49;;;;;;;13.35;2.40;;;;;;;;;;5026378;28;20057;-71
2022/06/26 07:45:18;;;;;;;19.90;2.88;;;;;;;;;;5026140;28;20041;-72
2022/06/26 07:47:56;;;;;;;15.18;2.88;;;;;;;;;;5026172;28;20504;-72
2022/06/26 07:50:26;;;;;;;12.13;2.45;;;;;;;;;;5059533;28;20049;-72
2022/06/26 07:52:57;;;;;;;15.87;2.20;;;;;;;;;;5025918;28;20416;-72
2022/06/26 07:55:27;;;;;;;15.43;1.98;;;;;;;;;;5027979;28;20776;-71
2022/06/26 07:57:57;;;;;;;12.90;3.17;;;;;;;;;;5027946;28;20045;-71
2022/06/26 08:00:27;;;;;;;14.68;2.22;;;;;;;;;;5027222;28;20042;-72
2022/06/26 08:03:04;;;;;;;17.80;2.53;;;;;;;;;;5027221;28;20049;-71
2022/06/26 08:05:34;;;;;;;18.52;2.63;;;;;;;;;;5026787;28;20053;-72
2022/06/26 08:08:05;;;;;;;15.98;2.00;;;;;;;;;;5027257;28;20539;-72
2022/06/26 08:10:36;;;;;;;13.73;2.22;;;;;;;;;;5027063;28;20543;-72
2022/06/26 08:13:07;;;;;;;10.05;2.42;;;;;;;;;;5027130;28;20056;-72
2022/06/26 08:15:37;;;;;;;14.73;2.85;;;;;;;;;;5026933;28;20056;-72
2022/06/26 08:18:07;;;;;;;15.52;2.13;;;;;;;;;;5026887;28;20412;-72
2022/06/26 08:20:37;;;;;;;16.75;2.53;;;;;;;;;;5025871;28;20049;-72
2022/06/26 08:23:08;;;;;;;13.63;2.28;;;;;;;;;;5026933;28;20042;-72
2022/06/26 08:25:38;;;;;;;;;;;;;;;;;;5027998;28;20046;-72
2022/06/26 08:28:08;;;;;;;13.80;2.28;;;;;;;;;;5026972;28;19925;-72
2022/06/26 08:30:38;;;;;;;15.73;2.63;;;;;;;;;;5026604;28;20053;-72
2022/06/26 08:33:08;;;;;;;12.43;1.98;;;;;;;;;;5026752;28;20053;-72
2022/06/26 08:35:38;;;;;;;12.98;2.55;;;;;;;;;;5026446;28;20079;-72
2022/06/26 08:38:08;;;;;;;12.70;1.90;;;;;;;;;;5026730;28;20048;-72
2022/06/26 08:40:38;;;;;;;9.10;1.80;;;;;;;;;;5026926;28;20041;-72
2022/06/26 08:43:08;;;;;;;13.02;2.00;;;;;;;;;;5026447;28;20045;-72
2022/06/26 08:45:38;;;;;;;14.32;2.30;;;;;;;;;;5026776;28;20595;-73
2022/06/26 08:48:12;;;;;;;14.65;2.72;;;;;;;;;;5025764;28;20052;-71
2022/06/26 08:50:44;;;;;;;16.13;2.42;;;;;;;;;;5026110;28;20050;-73
2022/06/26 08:53:15;;;;;;;15.77;2.35;;;;;;;;;;5026194;28;20045;-75
2022/06/26 08:55:46;;;;;;;13.43;2.22;;;;;;;;;;5026710;28;20049;-71
2022/06/26 08:58:16;;;;;;;18.58;2.75;;;;;;;;;;5026367;28;20413;-72
2022/06/26 09:00:46;;;;;;;15.80;2.38;;;;;;;;;;5026248;28;20090;-72
2022/06/26 09:03:16;;;;;;;;;;;;;;;;;;5027405;28;20045;-71
2022/06/26 09:05:46;;;;;;;11.55;1.92;;;;;;;;;;5026317;28;20343;-72
2022/06/26 09:08:18;;;;;;;14.77;2.67;;;;;;;;;;5026108;28;20527;-72
2022/06/26 09:10:49;;;;;;;15.95;2.75;;;;;;;;;;5026524;28;20064;-72
2022/06/26 09:13:19;;;;;;;20.90;2.38;;;;;;;;;;5026562;28;20501;-72
2022/06/26 09:15:50;;;;;;;9.80;1.90;;;;;;;;;;5026358;28;20045;-72
2022/06/26 09:18:20;;;;;;;8.13;2.05;;;;;;;;;;5025947;28;20069;-72
2022/06/26 09:20:54;;;;;;;10.75;1.88;;;;;;;;;;5026492;28;20504;-72
2022/06/26 09:23:25;;;;;;;11.45;1.85;;;;;;;;;;5026355;28;20037;-72
2022/06/26 09:25:58;;;;;;;13.27;2.40;;;;;;;;;;5026518;28;20405;-72
2022/06/26 09:28:29;;;;;;;7.63;1.60;;;;;;;;;;5024823;28;20196;-73
2022/06/26 09:31:04;;;;;;;9.07;1.80;;;;;;;;;;5025924;28;20049;-72
2022/06/26 09:33:40;;;;;;;12.75;2.10;;;;;;;;;;5028358;28;20413;-72
2022/06/26 09:36:18;;;;;;;12.40;1.75;;;;;;;;;;5030242;28;20099;-72
2022/06/26 09:38:51;;;;;;;12.82;1.92;;;;;;;;;;5029821;28;20046;-72
2022/06/26 09:41:32;;;;;;;20.08;2.33;;;;;;;;;;5030032;28;20441;-72
2022/06/26 09:44:03;;;;;;;7.80;2.05;;;;;;;;;;5030184;28;20389;-72
2022/06/26 09:46:33;;;;;;;14.38;2.28;;;;;;;;;;5030314;28;20563;-72
2022/06/26 09:49:04;;;;;;;6.68;1.65;;;;;;;;;;5030163;28;20428;-73
2022/06/26 09:51:34;;;;;;;12.45;2.03;;;;;;;;;;5029244;28;20547;-72
2022/06/26 09:54:05;;;;;;;9.05;1.60;;;;;;;;;;5029559;28;20053;-72
2022/06/26 09:56:36;;;;;;;11.13;1.92;;;;;;;;;;5029824;28;20424;-72
2022/06/26 09:59:08;;;;;;;10.68;1.70;;;;;;;;;;5029626;28;20037;-72
2022/06/26 10:07:26;;;;;;;14.18;2.00;;;;;;;;;;5029440;28;20053;-72
2022/06/26 10:09:57;;;;;;;13.40;2.85;;;;;;;;;;5029196;28;20050;-73
2022/06/26 10:12:28;;;;;;;16.38;1.98;;;;;;;;;;5029901;28;20064;-72
2022/06/26 10:14:58;;;;;;;12.82;2.25;;;;;;;;;;5029080;28;20112;-72
2022/06/26 10:17:57;;;;;;;11.32;1.88;;;;;;;;;;5027393;28;20079;-72
2022/06/26 10:20:31;;;;;;;13.00;1.90;;;;;;;;;;5029758;28;20046;-72
2022/06/26 10:23:01;;;;;;;13.15;2.05;;;;;;;;;;5029383;28;20049;-72
2022/06/26 10:25:32;;;;;;;9.90;1.70;;;;;;;;;;5029437;28;20522;-72
2022/06/26 10:28:01;;;;;;;11.52;1.55;;;;;;;;;;5029336;28;20414;-74
2022/06/26 10:30:32;;;;;;;9.55;1.80;;;;;;;;;;5029348;28;20045;-72
2022/06/26 10:33:16;;;;;;;10.13;1.85;;;;;;;;;;5029414;28;20056;-72
2022/06/26 10:35:54;;;;;;;8.25;1.55;;;;;;;;;;5028812;28;20049;-72
2022/06/26 10:38:29;;;;;;;9.75;2.00;;;;;;;;;;5029286;28;20056;-71
2022/06/26 10:44:10;;;;;;;11.55;2.08;;;;;;;;;;5028348;28;20328;-72
2022/06/26 10:46:46;;;;;;;11.05;2.08;;;;;;;;;;5028974;28;20371;-72
2022/06/26 10:49:17;;;;;;;10.50;2.15;;;;;;;;;;5028323;28;20052;-72
2022/06/26 10:51:46;;;;;;;14.38;1.95;;;;;;;;;;5028704;28;20057;-72
2022/06/26 10:54:27;;;;;;;8.50;1.90;;;;;;;;;;5028803;28;20358;-72
2022/06/26 10:57:13;;;;;;;8.57;2.00;;;;;;;;;;5028892;28;20052;-72
2022/06/26 10:59:45;;;;;;;7.13;1.58;;;;;;;;;;5028195;28;20057;-73
2022/06/26 11:02:15;;;;;;;12.07;1.75;;;;;;;;;;5027113;28;20068;-72
2022/06/26 11:04:50;;;;;;;11.57;1.90;;;;;;;;;;5028310;28;20069;-71
2022/06/26 11:07:20;;;;;;;13.40;1.80;;;;;;;;;;5028143;28;20052;-72
2022/06/26 11:09:50;;;;;;;11.00;2.20;;;;;;;;;;5028346;28;20049;-72
2022/06/26 11:12:19;;;;;;;18.08;2.22;;;;;;;;;;5028562;28;20049;-72
2022/06/26 11:14:49;;;;;;;13.50;2.47;;;;;;;;;;5028548;28;20060;-72
2022/06/26 11:17:25;;;;;;;11.38;2.08;;;;;;;;;;5028420;28;20092;-72
2022/06/26 11:22:43;;;;;;;10.68;2.05;;;;;;;;;;5028249;28;20041;-73
2022/06/26 11:25:13;;;;;;;7.90;1.30;;;;;;;;;;5028103;28;20046;-72
2022/06/26 11:27:52;;;;;;;12.77;2.20;;;;;;;;;;5028043;28;20049;-75
2022/06/26 11:30:23;;;;;;;9.10;2.00;;;;;;;;;;5027819;28;20340;-75
2022/06/26 11:32:53;;;;;;;10.55;2.15;;;;;;;;;;5028349;28;20045;-72
2022/06/26 11:35:26;;;;;;;17.27;2.17;;;;;;;;;;5027593;28;20061;-72
2022/06/26 11:37:56;;;;;;;5.78;1.65;;;;;;;;;;5028326;28;20512;-73
2022/06/26 11:40:26;;;;;;;11.02;1.98;;;;;;;;;;5027468;28;20056;-72
2022/06/26 11:42:56;;;;;;;11.98;1.52;;;;;;;;;;5027607;28;20041;-72
2022/06/26 11:45:32;;;;;;;8.48;2.15;;;;;;;;;;5028002;28;20497;-73
2022/06/26 11:48:07;;;;;;;11.75;2.45;;;;;;;;;;5028100;28;20408;-72
2022/06/26 11:50:38;;;;;;;17.75;3.35;;;;;;;;;;5027302;28;20085;-72
2022/06/26 11:53:08;;;;;;;10.60;2.58;;;;;;;;;;5026274;28;20057;-72
2022/06/26 11:55:46;;;;;;;8.65;1.90;;;;;;;;;;5026990;28;20054;-72
2022/06/26 11:58:17;;;;;;;18.90;2.20;;;;;;;;;;5027739;28;20061;-72
2022/06/26 12:00:47;;;;;;;13.73;1.88;;;;;;;;;;5027638;28;20066;-72
2022/06/26 12:03:23;;;;;;;10.13;1.80;;;;;;;;;;5026103;28;20041;-72
2022/06/26 12:05:54;;;;;;;13.97;1.80;;;;;;;;;;5027089;28;20041;-72
2022/06/26 12:08:24;;;;;;;10.38;1.88;;;;;;;;;;5026850;28;20412;-72
2022/06/26 12:10:54;;;;;;;13.48;1.80;;;;;;;;;;5027397;28;20049;-72
2022/06/26 12:13:30;;;;;;;11.70;1.33;;;;;;;;;;5026552;28;20049;-72
2022/06/26 12:16:08;;;;;;;6.78;1.70;;;;;;;;;;5027160;28;20050;-72
2022/06/26 12:18:40;;;;;;;14.90;2.15;;;;;;;;;;5026761;28;20057;-72
2022/06/26 12:21:19;;;;;;;6.32;1.90;;;;;;;;;;5026969;28;20048;-73
2022/06/26 12:23:52;;;;;;;22.38;2.53;;;;;;;;;;5027175;28;20077;-72
2022/06/26 12:26:25;;;;;;;10.07;2.00;;;;;;;;;;5026882;28;20045;-72
2022/06/26 12:29:00;;;;;;;6.32;1.27;;;;;;;;;;5027361;28;20417;-72
2022/06/26 12:31:30;;;;;;;7.97;1.67;;;;;;;;;;5026374;28;20500;-72
2022/06/26 12:34:02;;;;;;;8.20;2.07;;;;;;;;;;5025509;28;20049;-72
2022/06/26 12:36:32;;;;;;;;;;;;;;;;;;5026994;28;20295;-72
2022/06/26 12:39:02;;;;;;;13.43;1.88;;;;;;;;;;5026407;28;20739;-73
2022/06/26 12:41:52;;;;;;;9.70;1.45;;;;;;;;;;5026426;28;20060;-72
2022/06/26 12:44:22;;;;;;;8.27;1.92;;;;;;;;;;5026267;28;20057;-72
2022/06/26 12:46:52;;;;;;;12.00;2.38;;;;;;;;;;5026742;28;20049;-73
2022/06/26 12:49:22;;;;;;;7.10;1.40;;;;;;;;;;5025816;28;20049;-72
2022/06/26 12:51:52;;;;;;;9.52;1.75;;;;;;;;;;5026191;28;20390;-72
2022/06/26 12:54:22;;;;;;;8.27;1.48;;;;;;;;;;5026148;28;20432;-73
2022/06/26 12:56:52;;;;;;;10.38;3.92;;;;;;;;;;5026482;28;20041;-73
2022/06/26 12:59:22;;;;;;;14.88;2.17;;;;;;;;;;5024724;28;20536;-73
2022/06/26 13:01:52;;;;;;;7.85;1.70;;;;;;;;;;5026409;28;20053;-73
2022/06/26 13:04:23;;;;;;;9.23;2.13;;;;;;;;;;5025074;28;20050;-73
2022/06/26 13:06:53;;;;;;;15.27;1.80;;;;;;;;;;5027433;28;20045;-73
2022/06/26 13:09:23;;;;;;;13.27;1.52;;;;;;;;;;5030834;28;20056;-73
2022/06/26 13:11:52;;;;;;;11.98;2.63;;;;;;;;;;5030312;28;20045;-74
2022/06/26 13:14:22;;;;;;;15.85;2.20;;;;;;;;;;5029158;28;20056;-75
2022/06/26 13:16:52;;;;;;;8.40;1.50;;;;;;;;;;5030492;28;20072;-74
2022/06/26 13:19:23;;;;;;;6.43;1.50;;;;;;;;;;5029543;28;20045;-74
2022/06/26 13:21:53;;;;;;;8.25;2.30;;;;;;;;;;5028692;28;20334;-72
2022/06/26 13:24:24;;;;;;;8.43;1.77;;;;;;;;;;5061651;28;20069;-73
2022/06/26 13:26:55;;;;;;;;;;;;;;;;;;5028150;28;20531;-74
2022/06/26 13:29:26;;;;;;;8.93;1.63;;;;;;;;;;5030860;28;19921;-72
2022/06/26 13:31:56;;;;;;;7.70;1.80;;;;;;;;;;5030986;28;20033;-72
2022/06/26 13:34:26;;;;;;;20.70;2.40;;;;;;;;;;5030065;28;20064;-73
2022/06/26 13:36:56;;;;;;;8.73;1.70;;;;;;;;;;5029927;28;20045;-73
2022/06/26 13:39:26;;;;;;;9.48;1.88;;;;;;;;;;5029652;28;20049;-73
2022/06/26 13:41:56;;;;;;;8.43;1.70;;;;;;;;;;5030142;28;20049;-73
2022/06/26 13:44:26;;;;;;;10.15;1.85;;;;;;;;;;5029725;28;20049;-73
2022/06/26 13:46:56;;;;;;;10.90;2.38;;;;;;;;;;5029896;28;20116;-73
2022/06/26 13:49:27;;;;;;;13.60;1.80;;;;;;;;;;5030250;28;20057;-73
2022/06/26 13:51:56;;;;;;;8.40;1.58;;;;;;;;;;5009216;28;20053;-75
2022/06/26 13:54:32;;;;;;;5.43;1.60;;;;;;;;;;5010547;28;20056;-73
2022/06/26 13:57:04;;;;;;;5.83;1.20;;;;;;;;;;5009380;28;20053;-72
2022/06/26 13:59:34;;;;;;;8.57;1.50;;;;;;;;;;5010028;28;20672;-74
2022/06/26 14:02:04;;;;;;;9.60;1.48;;;;;;;;;;5009220;28;20053;-73
2022/06/26 14:04:35;;;;;;;6.37;1.40;;;;;;;;;;5007819;28;20507;-72
2022/06/26 14:07:05;;;;;;;8.82;1.58;;;;;;;;;;5009384;28;20057;-74
2022/06/26 14:09:38;;;;;;;7.32;1.55;;;;;;;;;;5009435;28;20100;-74
2022/06/26 14:12:12;;;;;;;9.55;1.60;;;;;;;;;;5009192;28;20042;-75
2022/06/26 14:14:42;;;;;;;10.43;1.85;;;;;;;;;;5010031;28;20050;-76
2022/06/26 14:17:12;;;;;;;15.38;1.85;;;;;;;;;;5010095;28;20048;-74
2022/06/26 14:19:42;;;;;;;9.00;1.73;;;;;;;;;;5008684;28;20038;-74
2022/06/26 14:27:49;;;;;;;14.23;1.90;;;;;;;;;;5009488;28;20056;-75
2022/06/26 14:30:18;;;;;;;7.55;1.75;;;;;;;;;;5009429;28;20430;-74
2022/06/26 14:32:49;;;;;;;8.18;2.38;;;;;;;;;;5009292;28;20480;-75
2022/06/26 14:35:19;;;;;;;5.35;1.70;;;;;;;;;;5009281;28;20053;-75
2022/06/26 14:37:51;;;;;;;12.30;1.95;;;;;;;;;;5009696;28;20057;-76
2022/06/26 14:40:30;;;;;;;9.45;1.60;;;;;;;;;;5008975;28;20129;-73
2022/06/26 14:43:00;;;;;;;10.30;1.80;;;;;;;;;;5009259;28;20050;-74
2022/06/26 14:45:30;;;;;;;13.65;2.30;;;;;;;;;;5008478;28;20061;-73
2022/06/26 14:48:00;;;;;;;4.10;1.30;;;;;;;;;;5008504;28;20050;-75
2022/06/26 14:50:30;;;;;;;9.07;1.65;;;;;;;;;;5016077;28;20527;-71
2022/06/26 14:53:01;;;;;;;10.57;2.08;;;;;;;;;;5028407;28;20061;-74
2022/06/26 14:55:31;;;;;;;14.60;2.33;;;;;;;;;;5028173;28;20060;-73
2022/06/26 14:58:02;;;;;;;10.57;1.50;;;;;;;;;;5028498;28;20489;-73
2022/06/26 15:00:32;;;;;;;9.52;1.42;;;;;;;;;;5028404;28;20412;-74
2022/06/26 15:03:03;;;;;;;9.40;2.00;;;;;;;;;;5028006;28;20056;-74
2022/06/26 15:05:33;;;;;;;10.00;2.28;;;;;;;;;;5028478;28;20421;-73
2022/06/26 15:08:03;;;;;;;6.78;2.60;;;;;;;;;;5028923;28;20064;-75
2022/06/26 15:10:34;;;;;;;11.98;2.10;;;;;;;;;;5027856;28;20052;-74
2022/06/26 15:13:05;;;;;;;8.20;2.03;;;;;;;;;;5028934;28;20460;-73
2022/06/26 15:15:34;;;;;;;14.02;1.92;;;;;;;;;;5028078;28;20420;-74
2022/06/26 15:18:04;;;;;;;10.85;2.50;;;;;;;;;;5027870;28;20060;-72
2022/06/26 15:20:34;;;;;;;5.57;1.70;;;;;;;;;;5026455;28;20049;-72
2022/06/26 15:23:04;;;;;;;8.63;1.70;;;;;;;;;;5027103;28;20412;-72
2022/06/26 15:25:34;;;;;;;10.15;1.85;;;;;;;;;;5026127;28;20049;-72
2022/06/26 15:28:04;;;;;;;8.85;1.60;;;;;;;;;;5027608;28;20424;-74